sensor_id;sensor_type;location;lat;lon;timestamp;pressure;altitude;pressure_sealevel;temperature;humidity
64668;BME280;51077;42.716;23.344;2023-07-29T00:02:07;95222.19;;;21.22;46.20
64668;BME280;51077;42.716;23.344;2023-07-29T00:04:32;95235.25;;;21.20;46.28
64668;BME280;51077;42.716;23.344;2023-07-29T00:06:57;95235.72;;;21.16;46.16
64668;BME280;51077;42.716;23.344;2023-07-29T00:09:22;95233.34;;;21.13;46.33
64668;BME280;51077;42.716;23.344;2023-07-29T00:11:48;95228.19;;;21.09;46.41
64668;BME280;51077;42.716;23.344;2023-07-29T00:14:13;95223.78;;;21.06;46.54
64668;BME280;51077;42.716;23.344;2023-07-29T00:16:38;95234.06;;;21.03;46.46
64668;BME280;51077;42.716;23.344;2023-07-29T00:19:03;95231.09;;;21.01;46.52
64668;BME280;51077;42.716;23.344;2023-07-29T00:21:29;95235.06;;;20.98;46.38
64668;BME280;51077;42.716;23.344;2023-07-29T00:23:54;95229.19;;;20.94;46.43
64668;BME280;51077;42.716;23.344;2023-07-29T00:26:22;95223.44;;;20.92;46.73
64668;BME280;51077;42.716;23.344;2023-07-29T00:28:47;95228.88;;;20.90;46.56
64668;BME280;51077;42.716;23.344;2023-07-29T00:31:12;95222.41;;;20.88;46.70
64668;BME280;51077;42.716;23.344;2023-07-29T00:33:38;95225.63;;;20.84;47.03
64668;BME280;51077;42.716;23.344;2023-07-29T00:36:03;95219.72;;;20.80;47.07
64668;BME280;51077;42.716;23.344;2023-07-29T00:38:28;95221.66;;;20.77;47.09
64668;BME280;51077;42.716;23.344;2023-07-29T00:40:54;95223.38;;;20.73;47.27
64668;BME280;51077;42.716;23.344;2023-07-29T00:43:19;95225.28;;;20.70;47.61
64668;BME280;51077;42.716;23.344;2023-07-29T00:45:44;95225.69;;;20.67;47.48
64668;BME280;51077;42.716;23.344;2023-07-29T00:48:10;95217.75;;;20.63;47.82
64668;BME280;51077;42.716;23.344;2023-07-29T00:50:35;95214.09;;;20.61;47.86
64668;BME280;51077;42.716;23.344;2023-07-29T00:53:00;95214.50;;;20.57;47.92
64668;BME280;51077;42.716;23.344;2023-07-29T00:55:26;95216.25;;;20.52;48.12
64668;BME280;51077;42.716;23.344;2023-07-29T00:57:51;95223.16;;;20.51;48.16
64668;BME280;51077;42.716;23.344;2023-07-29T01:00:19;95223.56;;;20.48;48.14
64668;BME280;51077;42.716;23.344;2023-07-29T01:02:44;95217.06;;;20.45;48.33
64668;BME280;51077;42.716;23.344;2023-07-29T01:05:11;95210.59;;;20.43;48.28
64668;BME280;51077;42.716;23.344;2023-07-29T01:12:58;95204.41;;;20.34;48.62
64668;BME280;51077;42.716;23.344;2023-07-29T01:15:29;95210.53;;;20.33;48.59
64668;BME280;51077;42.716;23.344;2023-07-29T01:18:02;95210.25;;;20.29;48.79
64668;BME280;51077;42.716;23.344;2023-07-29T01:20:29;95213.59;;;20.27;48.82
64668;BME280;51077;42.716;23.344;2023-07-29T01:22:57;95219.75;;;20.26;48.82
64668;BME280;51077;42.716;23.344;2023-07-29T01:25:22;95218.13;;;20.23;48.98
64668;BME280;51077;42.716;23.344;2023-07-29T01:27:48;95211.66;;;20.20;49.02
64668;BME280;51077;42.716;23.344;2023-07-29T01:30:16;95216.47;;;20.20;49.15
64668;BME280;51077;42.716;23.344;2023-07-29T01:35:21;95216.00;;;20.14;49.29
64668;BME280;51077;42.716;23.344;2023-07-29T01:37:49;95218.47;;;20.09;49.24
64668;BME280;51077;42.716;23.344;2023-07-29T01:40:16;95212.75;;;20.07;49.28
64668;BME280;51077;42.716;23.344;2023-07-29T01:42:42;95211.28;;;20.06;49.22
64668;BME280;51077;42.716;23.344;2023-07-29T01:45:08;95215.22;;;20.03;49.31
64668;BME280;51077;42.716;23.344;2023-07-29T01:47:33;95219.91;;;20.01;49.38
64668;BME280;51077;42.716;23.344;2023-07-29T01:49:59;95210.66;;;19.98;49.63
64668;BME280;51077;42.716;23.344;2023-07-29T01:52:24;95216.06;;;19.96;49.67
64668;BME280;51077;42.716;23.344;2023-07-29T01:54:49;95217.19;;;19.93;49.87
64668;BME280;51077;42.716;23.344;2023-07-29T01:57:14;95219.09;;;19.91;49.96
64668;BME280;51077;42.716;23.344;2023-07-29T01:59:40;95219.66;;;19.89;49.95
64668;BME280;51077;42.716;23.344;2023-07-29T02:02:05;95227.88;;;19.87;50.10
64668;BME280;51077;42.716;23.344;2023-07-29T02:04:30;95221.38;;;19.84;50.20
64668;BME280;51077;42.716;23.344;2023-07-29T02:06:56;95226.81;;;19.82;50.31
64668;BME280;51077;42.716;23.344;2023-07-29T02:09:21;95222.38;;;19.79;50.47
64668;BME280;51077;42.716;23.344;2023-07-29T02:11:46;95224.28;;;19.77;50.42
64668;BME280;51077;42.716;23.344;2023-07-29T02:14:12;95224.09;;;19.75;50.53
64668;BME280;51077;42.716;23.344;2023-07-29T02:16:37;95228.78;;;19.72;50.57
64668;BME280;51077;42.716;23.344;2023-07-29T02:19:04;95233.03;;;19.73;50.43
64668;BME280;51077;42.716;23.344;2023-07-29T02:21:29;95229.34;;;19.71;50.71
64668;BME280;51077;42.716;23.344;2023-07-29T02:23:54;95241.63;;;19.68;50.73
64668;BME280;51077;42.716;23.344;2023-07-29T02:26:19;95235.16;;;19.65;50.95
64668;BME280;51077;42.716;23.344;2023-07-29T02:28:44;95230.75;;;19.62;50.88
64668;BME280;51077;42.716;23.344;2023-07-29T02:31:18;95225.00;;;19.60;50.88
64668;BME280;51077;42.716;23.344;2023-07-29T02:33:43;95236.69;;;19.58;50.86
64668;BME280;51077;42.716;23.344;2023-07-29T02:36:08;95223.94;;;19.55;50.77
64668;BME280;51077;42.716;23.344;2023-07-29T02:38:34;95236.94;;;19.53;50.72
64668;BME280;51077;42.716;23.344;2023-07-29T02:40:59;95232.50;;;19.50;50.98
64668;BME280;51077;42.716;23.344;2023-07-29T02:43:24;95234.41;;;19.47;50.82
64668;BME280;51077;42.716;23.344;2023-07-29T02:45:49;95231.44;;;19.45;51.00
64668;BME280;51077;42.716;23.344;2023-07-29T02:48:15;95234.81;;;19.44;50.83
64668;BME280;51077;42.716;23.344;2023-07-29T02:50:40;95236.69;;;19.41;51.12
64668;BME280;51077;42.716;23.344;2023-07-29T02:53:05;95240.03;;;19.40;50.99
64668;BME280;51077;42.716;23.344;2023-07-29T02:55:30;95237.84;;;19.38;50.88
64668;BME280;51077;42.716;23.344;2023-07-29T02:57:56;95235.63;;;19.37;50.84
64668;BME280;51077;42.716;23.344;2023-07-29T03:00:21;95236.19;;;19.35;50.82
64668;BME280;51077;42.716;23.344;2023-07-29T03:02:46;95236.03;;;19.33;50.84
64668;BME280;51077;42.716;23.344;2023-07-29T03:05:11;95242.75;;;19.30;50.74
64668;BME280;51077;42.716;23.344;2023-07-29T03:07:37;95245.34;;;19.28;50.83
64668;BME280;51077;42.716;23.344;2023-07-29T03:10:03;95247.25;;;19.25;51.12
64668;BME280;51077;42.716;23.344;2023-07-29T03:12:28;95248.56;;;19.24;51.03
64668;BME280;51077;42.716;23.344;2023-07-29T03:14:53;95251.16;;;19.22;51.07
64668;BME280;51077;42.716;23.344;2023-07-29T03:17:18;95248.78;;;19.19;51.18
64668;BME280;51077;42.716;23.344;2023-07-29T03:19:44;95251.41;;;19.17;50.96
64668;BME280;51077;42.716;23.344;2023-07-29T03:22:09;95249.16;;;19.15;51.19
64668;BME280;51077;42.716;23.344;2023-07-29T03:24:34;95246.97;;;19.14;51.20
64668;BME280;51077;42.716;23.344;2023-07-29T03:26:59;95250.38;;;19.04;51.72
64668;BME280;51077;42.716;23.344;2023-07-29T03:29:25;95257.16;;;18.94;51.91
64668;BME280;51077;42.716;23.344;2023-07-29T03:31:50;95257.03;;;18.84;52.46
64668;BME280;51077;42.716;23.344;2023-07-29T03:34:15;95262.66;;;18.76;52.47
64668;BME280;51077;42.716;23.344;2023-07-29T03:36:40;95260.09;;;18.71;52.53
64668;BME280;51077;42.716;23.344;2023-07-29T03:39:06;95260.28;;;18.73;52.27
64668;BME280;51077;42.716;23.344;2023-07-29T03:41:32;95259.13;;;18.76;52.27
64668;BME280;51077;42.716;23.344;2023-07-29T03:43:58;95258.19;;;18.81;52.20
64668;BME280;51077;42.716;23.344;2023-07-29T03:46:23;95260.53;;;18.84;52.34
64668;BME280;51077;42.716;23.344;2023-07-29T03:48:49;95251.06;;;18.88;51.99
64668;BME280;51077;42.716;23.344;2023-07-29T03:51:14;95262.53;;;18.92;52.28
64668;BME280;51077;42.716;23.344;2023-07-29T03:53:40;95258.63;;;18.95;52.28
64668;BME280;51077;42.716;23.344;2023-07-29T03:56:05;95259.53;;;18.97;52.14
64668;BME280;51077;42.716;23.344;2023-07-29T03:58:30;95261.16;;;19.00;52.02
64668;BME280;51077;42.716;23.344;2023-07-29T04:00:56;95253.16;;;19.04;52.07
64668;BME280;51077;42.716;23.344;2023-07-29T04:03:21;95254.81;;;19.07;52.19
64668;BME280;51077;42.716;23.344;2023-07-29T04:05:46;95254.97;;;19.09;52.08
64668;BME280;51077;42.716;23.344;2023-07-29T04:08:11;95263.66;;;19.14;52.09
64668;BME280;51077;42.716;23.344;2023-07-29T04:10:37;95263.25;;;19.17;52.06
64668;BME280;51077;42.716;23.344;2023-07-29T04:13:03;95262.28;;;19.22;51.89
64668;BME280;51077;42.716;23.344;2023-07-29T04:15:28;95259.09;;;19.26;51.88
64668;BME280;51077;42.716;23.344;2023-07-29T04:17:53;95260.00;;;19.28;51.64
64668;BME280;51077;42.716;23.344;2023-07-29T04:20:18;95265.16;;;19.32;51.73
64668;BME280;51077;42.716;23.344;2023-07-29T04:22:44;95261.97;;;19.36;51.65
64668;BME280;51077;42.716;23.344;2023-07-29T04:25:09;95259.38;;;19.38;51.65
64668;BME280;51077;42.716;23.344;2023-07-29T04:27:35;95263.78;;;19.41;51.57
64668;BME280;51077;42.716;23.344;2023-07-29T04:30:00;95263.22;;;19.42;51.51
64668;BME280;51077;42.716;23.344;2023-07-29T04:32:25;95261.50;;;19.47;51.45
64668;BME280;51077;42.716;23.344;2023-07-29T04:34:50;95261.09;;;19.50;51.45
64668;BME280;51077;42.716;23.344;2023-07-29T04:37:16;95265.09;;;19.57;51.26
64668;BME280;51077;42.716;23.344;2023-07-29T04:39:41;95268.41;;;19.63;51.29
64668;BME280;51077;42.716;23.344;2023-07-29T04:42:06;95274.31;;;19.67;51.22
64668;BME280;51077;42.716;23.344;2023-07-29T04:44:31;95281.38;;;19.68;51.25
64668;BME280;51077;42.716;23.344;2023-07-29T04:46:57;95273.34;;;19.72;51.09
64668;BME280;51077;42.716;23.344;2023-07-29T04:49:22;95274.56;;;19.79;51.09
64668;BME280;51077;42.716;23.344;2023-07-29T04:51:47;95277.28;;;19.87;50.89
64668;BME280;51077;42.716;23.344;2023-07-29T04:54:12;95280.72;;;19.95;50.73
64668;BME280;51077;42.716;23.344;2023-07-29T04:56:38;95283.38;;;20.02;50.55
64668;BME280;51077;42.716;23.344;2023-07-29T04:59:03;95283.47;;;20.12;50.40
64668;BME280;51077;42.716;23.344;2023-07-29T05:01:29;95283.38;;;20.20;50.18
64668;BME280;51077;42.716;23.344;2023-07-29T05:03:54;95283.28;;;20.27;50.11
64668;BME280;51077;42.716;23.344;2023-07-29T05:06:19;95290.97;;;20.37;49.98
64668;BME280;51077;42.716;23.344;2023-07-29T05:08:44;95283.41;;;20.47;49.74
64668;BME280;51077;42.716;23.344;2023-07-29T05:11:10;95284.94;;;20.57;49.87
64668;BME280;51077;42.716;23.344;2023-07-29T05:13:35;95282.94;;;20.68;49.81
64668;BME280;51077;42.716;23.344;2023-07-29T05:16:01;95290.78;;;20.79;49.47
64668;BME280;51077;42.716;23.344;2023-07-29T05:18:26;95291.13;;;20.93;49.21
64668;BME280;51077;42.716;23.344;2023-07-29T05:20:52;95292.66;;;21.03;49.03
64668;BME280;51077;42.716;23.344;2023-07-29T05:23:17;95289.91;;;21.13;48.95
64668;BME280;51077;42.716;23.344;2023-07-29T05:25:42;95298.28;;;21.23;48.88
64668;BME280;51077;42.716;23.344;2023-07-29T05:28:07;95296.88;;;21.31;48.81
64668;BME280;51077;42.716;23.344;2023-07-29T05:30:33;95301.75;;;21.41;48.53
64668;BME280;51077;42.716;23.344;2023-07-29T05:33:02;95287.81;;;21.50;48.29
64668;BME280;51077;42.716;23.344;2023-07-29T05:35:28;95300.31;;;21.59;47.93
64668;BME280;51077;42.716;23.344;2023-07-29T05:37:53;95299.63;;;21.68;48.08
64668;BME280;51077;42.716;23.344;2023-07-29T05:40:18;95304.31;;;21.75;47.84
64668;BME280;51077;42.716;23.344;2023-07-29T05:42:44;95295.81;;;21.83;48.00
64668;BME280;51077;42.716;23.344;2023-07-29T05:45:10;95304.91;;;21.93;47.87
64668;BME280;51077;42.716;23.344;2023-07-29T05:47:35;95300.66;;;22.02;47.60
64668;BME280;51077;42.716;23.344;2023-07-29T05:50:01;95297.88;;;22.12;47.35
64668;BME280;51077;42.716;23.344;2023-07-29T05:52:29;95304.94;;;22.22;47.31
64668;BME280;51077;42.716;23.344;2023-07-29T05:54:54;95297.28;;;22.32;47.07
64668;BME280;51077;42.716;23.344;2023-07-29T05:57:20;95305.53;;;22.40;46.78
64668;BME280;51077;42.716;23.344;2023-07-29T05:59:45;95301.97;;;22.49;46.57
64668;BME280;51077;42.716;23.344;2023-07-29T06:02:10;95305.22;;;22.55;46.70
64668;BME280;51077;42.716;23.344;2023-07-29T06:04:36;95307.25;;;22.65;46.49
64668;BME280;51077;42.716;23.344;2023-07-29T06:07:01;95303.53;;;22.72;46.13
64668;BME280;51077;42.716;23.344;2023-07-29T06:09:26;95300.72;;;22.81;45.95
64668;BME280;51077;42.716;23.344;2023-07-29T06:11:51;95300.72;;;22.91;45.80
64668;BME280;51077;42.716;23.344;2023-07-29T06:14:17;95298.63;;;23.01;45.53
64668;BME280;51077;42.716;23.344;2023-07-29T06:16:42;95295.63;;;23.09;45.46
64668;BME280;51077;42.716;23.344;2023-07-29T06:19:07;95298.25;;;23.17;45.27
64668;BME280;51077;42.716;23.344;2023-07-29T06:21:34;95289.53;;;23.22;45.00
64668;BME280;51077;42.716;23.344;2023-07-29T06:23:59;95296.28;;;23.29;44.76
64668;BME280;51077;42.716;23.344;2023-07-29T06:26:24;95288.28;;;23.35;44.71
64668;BME280;51077;42.716;23.344;2023-07-29T06:28:49;95294.28;;;23.41;44.48
64668;BME280;51077;42.716;23.344;2023-07-29T06:31:14;95293.50;;;23.50;44.41
64668;BME280;51077;42.716;23.344;2023-07-29T06:33:40;95282.84;;;23.58;44.52
64668;BME280;51077;42.716;23.344;2023-07-29T06:36:05;95280.75;;;23.69;44.27
64668;BME280;51077;42.716;23.344;2023-07-29T06:38:31;95284.22;;;23.79;44.02
64668;BME280;51077;42.716;23.344;2023-07-29T06:40:56;95280.00;;;23.90;44.00
64668;BME280;51077;42.716;23.344;2023-07-29T06:43:21;95276.41;;;23.99;43.68
64668;BME280;51077;42.716;23.344;2023-07-29T06:45:47;95278.50;;;24.10;43.47
64668;BME280;51077;42.716;23.344;2023-07-29T06:48:12;95268.81;;;24.23;43.02
64668;BME280;51077;42.716;23.344;2023-07-29T06:50:37;95273.59;;;24.32;42.70
64668;BME280;51077;42.716;23.344;2023-07-29T06:53:03;95270.59;;;24.40;42.39
64668;BME280;51077;42.716;23.344;2023-07-29T06:55:28;95269.16;;;24.50;42.21
64668;BME280;51077;42.716;23.344;2023-07-29T07:01:30;95272.34;;;24.68;41.82
64668;BME280;51077;42.716;23.344;2023-07-29T07:03:55;95269.47;;;24.90;41.09
64668;BME280;51077;42.716;23.344;2023-07-29T07:06:23;95273.25;;;25.06;40.29
64668;BME280;51077;42.716;23.344;2023-07-29T07:08:50;95280.63;;;25.23;40.34
64668;BME280;51077;42.716;23.344;2023-07-29T07:11:15;95270.34;;;25.39;40.04
64668;BME280;51077;42.716;23.344;2023-07-29T07:13:41;95272.66;;;25.54;40.13
64668;BME280;51077;42.716;23.344;2023-07-29T07:16:06;95268.06;;;25.73;39.47
64668;BME280;51077;42.716;23.344;2023-07-29T07:18:31;95272.00;;;25.91;39.55
64668;BME280;51077;42.716;23.344;2023-07-29T07:20:57;95271.66;;;26.11;39.11
64668;BME280;51077;42.716;23.344;2023-07-29T07:23:22;95276.34;;;26.31;38.61
64668;BME280;51077;42.716;23.344;2023-07-29T07:25:48;95271.03;;;26.49;38.69
64668;BME280;51077;42.716;23.344;2023-07-29T07:28:13;95263.34;;;26.64;38.17
64668;BME280;51077;42.716;23.344;2023-07-29T07:30:42;95260.69;;;26.79;37.89
64668;BME280;51077;42.716;23.344;2023-07-29T07:33:07;95259.47;;;26.96;37.57
64668;BME280;51077;42.716;23.344;2023-07-29T07:35:33;95263.41;;;27.17;37.52
64668;BME280;51077;42.716;23.344;2023-07-29T07:37:58;95268.59;;;27.36;37.19
64668;BME280;51077;42.716;23.344;2023-07-29T07:40:27;95259.72;;;27.55;36.76
64668;BME280;51077;42.716;23.344;2023-07-29T07:42:52;95257.88;;;27.74;36.16
64668;BME280;51077;42.716;23.344;2023-07-29T07:45:17;95256.38;;;27.87;36.08
64668;BME280;51077;42.716;23.344;2023-07-29T07:47:43;95263.63;;;28.05;35.69
64668;BME280;51077;42.716;23.344;2023-07-29T07:50:08;95258.16;;;28.23;35.63
64668;BME280;51077;42.716;23.344;2023-07-29T07:52:34;95259.22;;;28.46;35.14
64668;BME280;51077;42.716;23.344;2023-07-29T07:54:59;95258.00;;;28.65;34.99
64668;BME280;51077;42.716;23.344;2023-07-29T07:57:25;95254.66;;;28.84;34.60
64668;BME280;51077;42.716;23.344;2023-07-29T07:59:50;95267.53;;;29.03;34.20
64668;BME280;51077;42.716;23.344;2023-07-29T08:02:17;95264.44;;;29.13;33.96
64668;BME280;51077;42.716;23.344;2023-07-29T08:04:43;95266.53;;;29.28;33.85
64668;BME280;51077;42.716;23.344;2023-07-29T08:07:08;95261.31;;;29.38;33.58
64668;BME280;51077;42.716;23.344;2023-07-29T08:09:34;95258.94;;;29.48;33.47
64668;BME280;51077;42.716;23.344;2023-07-29T08:11:59;95259.56;;;29.63;33.19
64668;BME280;51077;42.716;23.344;2023-07-29T08:14:24;95253.69;;;29.74;33.00
64668;BME280;51077;42.716;23.344;2023-07-29T08:16:51;95255.28;;;29.95;32.74
64668;BME280;51077;42.716;23.344;2023-07-29T08:19:16;95258.75;;;30.12;32.22
64668;BME280;51077;42.716;23.344;2023-07-29T08:21:42;95256.44;;;30.24;32.04
64668;BME280;51077;42.716;23.344;2023-07-29T08:24:07;95259.94;;;30.40;32.15
64668;BME280;51077;42.716;23.344;2023-07-29T08:26:33;95260.63;;;30.59;31.63
64668;BME280;51077;42.716;23.344;2023-07-29T08:28:58;95248.53;;;30.74;31.11
64668;BME280;51077;42.716;23.344;2023-07-29T08:31:24;95246.06;;;30.84;30.95
64668;BME280;51077;42.716;23.344;2023-07-29T08:33:49;95252.19;;;30.96;30.46
64668;BME280;51077;42.716;23.344;2023-07-29T08:36:14;95246.97;;;31.09;30.68
64668;BME280;51077;42.716;23.344;2023-07-29T08:38:40;95246.09;;;31.24;29.89
64668;BME280;51077;42.716;23.344;2023-07-29T08:41:16;95245.84;;;31.36;30.13
64668;BME280;51077;42.716;23.344;2023-07-29T08:43:52;95244.47;;;31.57;29.63
64668;BME280;51077;42.716;23.344;2023-07-29T08:46:19;95230.03;;;31.70;29.21
64668;BME280;51077;42.716;23.344;2023-07-29T08:48:45;95236.19;;;31.85;29.54
64668;BME280;51077;42.716;23.344;2023-07-29T08:51:12;95235.22;;;31.98;28.93
64668;BME280;51077;42.716;23.344;2023-07-29T08:53:38;95224.13;;;32.06;28.29
64668;BME280;51077;42.716;23.344;2023-07-29T08:56:06;95231.06;;;32.23;28.15
64668;BME280;51077;42.716;23.344;2023-07-29T08:58:32;95226.56;;;32.38;27.92
64668;BME280;51077;42.716;23.344;2023-07-29T09:00:57;95220.59;;;32.51;27.54
64668;BME280;51077;42.716;23.344;2023-07-29T09:03:23;95213.91;;;32.65;27.16
64668;BME280;51077;42.716;23.344;2023-07-29T09:05:48;95219.53;;;32.87;26.87
64668;BME280;51077;42.716;23.344;2023-07-29T09:08:14;95224.19;;;33.00;26.13
64668;BME280;51077;42.716;23.344;2023-07-29T09:10:40;95215.38;;;33.14;25.27
64668;BME280;51077;42.716;23.344;2023-07-29T09:13:06;95206.31;;;33.21;24.89
64668;BME280;51077;42.716;23.344;2023-07-29T09:15:34;95208.63;;;33.27;24.67
64668;BME280;51077;42.716;23.344;2023-07-29T09:18:09;95206.63;;;33.32;24.71
64668;BME280;51077;42.716;23.344;2023-07-29T09:20:34;95210.22;;;33.34;24.90
64668;BME280;51077;42.716;23.344;2023-07-29T09:23:00;95197.56;;;33.39;24.78
64668;BME280;51077;42.716;23.344;2023-07-29T09:25:27;95202.22;;;33.53;24.78
64668;BME280;51077;42.716;23.344;2023-07-29T09:27:58;95192.06;;;33.73;24.48
64668;BME280;51077;42.716;23.344;2023-07-29T09:30:25;95188.13;;;33.87;24.13
64668;BME280;51077;42.716;23.344;2023-07-29T09:32:57;95198.13;;;33.88;23.89
64668;BME280;51077;42.716;23.344;2023-07-29T09:35:23;95189.16;;;33.97;23.93
64668;BME280;51077;42.716;23.344;2023-07-29T09:37:50;95189.47;;;34.12;23.72
64668;BME280;51077;42.716;23.344;2023-07-29T09:40:17;95193.53;;;34.33;23.33
64668;BME280;51077;42.716;23.344;2023-07-29T09:42:53;95188.97;;;34.49;22.87
64668;BME280;51077;42.716;23.344;2023-07-29T09:45:22;95177.38;;;34.43;22.95
64668;BME280;51077;42.716;23.344;2023-07-29T09:47:48;95177.88;;;34.64;22.43
64668;BME280;51077;42.716;23.344;2023-07-29T09:50:14;95178.03;;;34.72;22.15
64668;BME280;51077;42.716;23.344;2023-07-29T09:52:39;95172.28;;;34.70;22.16
64668;BME280;51077;42.716;23.344;2023-07-29T09:55:06;95175.78;;;34.66;21.88
64668;BME280;51077;42.716;23.344;2023-07-29T09:57:32;95172.84;;;34.62;21.86
64668;BME280;51077;42.716;23.344;2023-07-29T09:59:58;95172.28;;;34.70;22.17
64668;BME280;51077;42.716;23.344;2023-07-29T10:02:24;95172.19;;;34.98;22.10
64668;BME280;51077;42.716;23.344;2023-07-29T10:04:54;95167.63;;;35.19;21.88
64668;BME280;51077;42.716;23.344;2023-07-29T10:07:20;95166.66;;;35.44;21.48
64668;BME280;51077;42.716;23.344;2023-07-29T10:09:46;95163.47;;;35.64;21.72
64668;BME280;51077;42.716;23.344;2023-07-29T10:12:13;95158.84;;;35.87;21.01
64668;BME280;51077;42.716;23.344;2023-07-29T10:14:38;95155.78;;;36.17;20.71
64668;BME280;51077;42.716;23.344;2023-07-29T10:17:07;95155.31;;;36.35;20.52
64668;BME280;51077;42.716;23.344;2023-07-29T10:19:34;95157.09;;;36.57;20.23
64668;BME280;51077;42.716;23.344;2023-07-29T10:22:00;95153.59;;;36.62;20.50
64668;BME280;51077;42.716;23.344;2023-07-29T10:24:30;95149.16;;;36.51;20.03
64668;BME280;51077;42.716;23.344;2023-07-29T10:26:58;95139.84;;;36.48;20.39
64668;BME280;51077;42.716;23.344;2023-07-29T10:29:30;95134.16;;;36.53;20.53
64668;BME280;51077;42.716;23.344;2023-07-29T10:32:02;95127.78;;;36.56;20.29
64668;BME280;51077;42.716;23.344;2023-07-29T10:34:30;95120.72;;;36.63;19.96
64668;BME280;51077;42.716;23.344;2023-07-29T10:36:56;95121.59;;;36.76;20.35
64668;BME280;51077;42.716;23.344;2023-07-29T10:39:24;95117.44;;;36.87;20.00
64668;BME280;51077;42.716;23.344;2023-07-29T10:42:01;95111.28;;;37.09;19.92
64668;BME280;51077;42.716;23.344;2023-07-29T10:47:11;95112.25;;;37.34;19.28
64668;BME280;51077;42.716;23.344;2023-07-29T10:49:40;95119.72;;;37.62;18.24
64668;BME280;51077;42.716;23.344;2023-07-29T10:52:06;95106.09;;;37.62;18.16
64668;BME280;51077;42.716;23.344;2023-07-29T10:54:45;95107.06;;;37.16;18.45
64668;BME280;51077;42.716;23.344;2023-07-29T10:57:34;95101.19;;;37.04;18.53
64668;BME280;51077;42.716;23.344;2023-07-29T11:00:00;95107.69;;;37.09;18.69
64668;BME280;51077;42.716;23.344;2023-07-29T11:02:31;95090.75;;;37.31;18.19
64668;BME280;51077;42.716;23.344;2023-07-29T11:04:57;95088.63;;;37.32;18.48
64668;BME280;51077;42.716;23.344;2023-07-29T11:07:23;95089.47;;;37.42;18.35
64668;BME280;51077;42.716;23.344;2023-07-29T11:10:02;95090.41;;;37.69;18.01
64668;BME280;51077;42.716;23.344;2023-07-29T11:12:47;95084.81;;;37.86;18.45
64668;BME280;51077;42.716;23.344;2023-07-29T11:17:50;95084.91;;;37.98;18.13
64668;BME280;51077;42.716;23.344;2023-07-29T11:20:17;95087.13;;;38.06;18.11
64668;BME280;51077;42.716;23.344;2023-07-29T11:22:43;95077.75;;;37.99;18.27
64668;BME280;51077;42.716;23.344;2023-07-29T11:25:10;95079.94;;;38.05;18.33
64668;BME280;51077;42.716;23.344;2023-07-29T11:27:36;95077.84;;;38.11;18.15
64668;BME280;51077;42.716;23.344;2023-07-29T11:30:07;95082.91;;;38.19;18.24
64668;BME280;51077;42.716;23.344;2023-07-29T11:32:37;95078.78;;;38.53;17.22
64668;BME280;51077;42.716;23.344;2023-07-29T11:35:07;95071.56;;;38.39;17.18
64668;BME280;51077;42.716;23.344;2023-07-29T11:37:34;95078.78;;;38.44;17.69
64668;BME280;51077;42.716;23.344;2023-07-29T11:39:59;95076.97;;;37.90;18.11
64668;BME280;51077;42.716;23.344;2023-07-29T11:42:26;95067.53;;;37.76;18.24
64668;BME280;51077;42.716;23.344;2023-07-29T11:44:52;95069.19;;;38.05;17.83
64668;BME280;51077;42.716;23.344;2023-07-29T11:47:17;95069.69;;;37.77;18.08
64668;BME280;51077;42.716;23.344;2023-07-29T11:49:42;95061.06;;;37.71;17.78
64668;BME280;51077;42.716;23.344;2023-07-29T11:52:09;95059.69;;;37.78;17.57
64668;BME280;51077;42.716;23.344;2023-07-29T11:54:38;95058.38;;;37.93;17.66
64668;BME280;51077;42.716;23.344;2023-07-29T11:57:08;95050.63;;;38.16;17.51
64668;BME280;51077;42.716;23.344;2023-07-29T11:59:37;95057.22;;;38.33;17.58
64668;BME280;51077;42.716;23.344;2023-07-29T12:02:09;95051.53;;;38.45;17.17
64668;BME280;51077;42.716;23.344;2023-07-29T12:04:36;95045.16;;;38.65;17.16
64668;BME280;51077;42.716;23.344;2023-07-29T12:07:02;95044.44;;;38.63;17.36
64668;BME280;51077;42.716;23.344;2023-07-29T12:09:31;95032.31;;;38.77;17.35
64668;BME280;51077;42.716;23.344;2023-07-29T12:11:57;95026.53;;;38.72;17.53
64668;BME280;51077;42.716;23.344;2023-07-29T12:14:26;95028.03;;;38.88;17.11
64668;BME280;51077;42.716;23.344;2023-07-29T12:16:52;95025.19;;;38.90;17.14
64668;BME280;51077;42.716;23.344;2023-07-29T12:19:18;95028.75;;;38.82;17.37
64668;BME280;51077;42.716;23.344;2023-07-29T12:21:44;95025.88;;;38.82;16.88
64668;BME280;51077;42.716;23.344;2023-07-29T12:24:12;95017.88;;;38.60;16.98
64668;BME280;51077;42.716;23.344;2023-07-29T12:26:39;95012.19;;;38.62;17.21
64668;BME280;51077;42.716;23.344;2023-07-29T12:29:12;95016.50;;;38.71;16.92
64668;BME280;51077;42.716;23.344;2023-07-29T12:31:38;95019.94;;;38.35;16.94
64668;BME280;51077;42.716;23.344;2023-07-29T12:34:03;95014.19;;;38.31;16.98
64668;BME280;51077;42.716;23.344;2023-07-29T12:36:46;95012.72;;;38.30;16.64
64668;BME280;51077;42.716;23.344;2023-07-29T12:39:19;95014.25;;;38.47;16.68
64668;BME280;51077;42.716;23.344;2023-07-29T12:41:45;95007.81;;;38.45;16.12
64668;BME280;51077;42.716;23.344;2023-07-29T12:44:10;95009.94;;;38.36;16.73
64668;BME280;51077;42.716;23.344;2023-07-29T12:46:36;95010.53;;;38.18;16.56
64668;BME280;51077;42.716;23.344;2023-07-29T12:49:01;95019.13;;;38.18;16.70
64668;BME280;51077;42.716;23.344;2023-07-29T12:51:26;95014.84;;;38.21;16.81
64668;BME280;51077;42.716;23.344;2023-07-29T12:53:53;95006.69;;;37.75;16.72
64668;BME280;51077;42.716;23.344;2023-07-29T12:56:19;95011.53;;;37.56;16.86
64668;BME280;51077;42.716;23.344;2023-07-29T12:58:44;94999.25;;;37.39;17.33
64668;BME280;51077;42.716;23.344;2023-07-29T13:01:09;95007.97;;;37.56;16.87
64668;BME280;51077;42.716;23.344;2023-07-29T13:03:38;95002.31;;;37.70;17.28